Libre — H9PF — position and weather

sailwx.info

Track history (hours):
 
Tides and Currents Weather Stations Pressure Air Temp Water Temp Dewpoint Dewpoint Depression Visibility Wind Speed Wind Dir Waves Ship Positions

Libre

Last reported at 2018-Jun-15 12:57 UTC. Time now 2018-Jun-24 22:06 UTC.
Position N 34°20' W 025°24'.
Warning: this ship's position is 9 days out of date.

Length 190 m; draft 9.8 m.

Type: Cargo ship. MMSI: 352486000.

Date/timePositionNaut miles runAvg speedWind from/ knotsBaromVisibWave heightAir tempDewpointWater temp
2018-Jun-15 12:57N 34°20' W 025°24'53712.7
2018-Jun-13 18:45N 35°29' W 014°35'312.5
2018-Jun-13 18:29N 35°29' W 014°30'612.9
2018-Jun-13 18:00N 35°29' W 014°23'812.8
2018-Jun-13 17:23N 35°30' W 014°13'612.8
2018-Jun-13 16:55N 35°30' W 014°06'512.8
2018-Jun-13 16:30N 35°31' W 013°59'612.6
2018-Jun-13 16:01N 35°31' W 013°52'812.5
2018-Jun-13 15:24N 35°32' W 013°42'2012.5
2018-Jun-13 13:49N 35°33' W 013°18'912.6
2018-Jun-13 13:07N 35°34' W 013°07'112.6
2018-Jun-13 13:00N 35°34' W 013°06'14712.4
2018-Jun-13 01:09N 35°44' W 010°05'22012.1
2018-Jun-12 06:54N 35°58' W 005°33'4 9.0
2018-Jun-12 06:30N 35°60' W 005°29'4 7.8
2018-Jun-12 06:00N 36°01' W 005°25'5 9.5
2018-Jun-12 05:30N 36°06' W 005°23'2 3.8
2018-Jun-12 05:00N 36°07' W 005°22'0 0.1
2018-Jun-12 04:30N 36°07' W 005°22'0 0.1
2018-Jun-12 03:57N 36°07' W 005°22'0 0.2
2018-Jun-12 03:30N 36°07' W 005°22'0 0.0
2018-Jun-12 03:00N 36°07' W 005°22'0 0.1
2018-Jun-12 02:30N 36°07' W 005°22'0 0.1
2018-Jun-12 01:58N 36°07' W 005°22'0 0.2
2018-Jun-12 01:30N 36°07' W 005°22'0 0.0
2018-Jun-12 01:01N 36°07' W 005°22'0 0.1
2018-Jun-12 00:30N 36°07' W 005°22'0 0.0
2018-Jun-12 00:00N 36°07' W 005°22'0 0.0
2018-Jun-11 23:30N 36°07' W 005°22'0 0.1
2018-Jun-11 23:00N 36°07' W 005°22'0 0.1
2018-Jun-11 22:31N 36°07' W 005°22'0 0.1
2018-Jun-11 22:00N 36°07' W 005°22'0 0.1
2018-Jun-11 21:30N 36°07' W 005°22'0 0.1
2018-Jun-11 21:01N 36°07' W 005°22'0 0.1
2018-Jun-11 20:31N 36°07' W 005°22'0 0.0
2018-Jun-11 20:00N 36°07' W 005°22'0 0.0
2018-Jun-11 19:30N 36°07' W 005°22'0 0.0
2018-Jun-11 19:01N 36°07' W 005°22'0 0.1
2018-Jun-11 18:31N 36°07' W 005°22'0 0.8
2018-Jun-11 17:59N 36°07' W 005°21'1 2.4
2018-Jun-11 17:30N 36°06' W 005°22'2 3.4
2018-Jun-11 17:00N 36°06' W 005°19'1 2.7
2018-Jun-11 16:31N 36°06' W 005°18'0 0.9
2018-Jun-11 16:00N 36°06' W 005°17'1 2.6
2018-Jun-11 15:31N 36°06' W 005°16'3 2.8
2018-Jun-11 14:33N 36°07' W 005°13'0 1.6
2018-Jun-11 14:30N 36°07' W 005°13'3 0.3
2018-Jun-11 06:10N 36°08' W 005°10'0 0.2
2018-Jun-11 05:59N 36°08' W 005°10'0 0.5
2018-Jun-11 05:30N 36°08' W 005°10'0 0.6
2018-Jun-11 05:00N 36°08' W 005°10'0 0.9
2018-Jun-11 04:30N 36°07' W 005°11'0 0.9
2018-Jun-11 04:00N 36°07' W 005°11'0 0.7
2018-Jun-11 03:30N 36°07' W 005°11'0 0.8
2018-Jun-11 03:00N 36°07' W 005°12'0 0.7
2018-Jun-11 02:29N 36°06' W 005°12'1 1.2
2018-Jun-11 02:00N 36°06' W 005°11'2 4.6
2018-Jun-11 01:28N 36°05' W 005°09'2 3.5
2018-Jun-11 01:00N 36°04' W 005°11'610.0
2018-Jun-11 00:27N 36°05' W 005°04'29510.1
2018-Jun-09 19:06N 36°54' E 000°58'212.1
2018-Jun-09 18:56N 36°55' E 001°00'512.1
2018-Jun-09 18:30N 36°56' E 001°07'2412.2
2018-Jun-09 16:32N 37°03' E 001°35'112.6
2018-Jun-09 16:29N 37°03' E 001°36'612.6
2018-Jun-09 16:00N 37°05' E 001°43'1312.5
2018-Jun-09 14:59N 37°09' E 001°58'612.6
2018-Jun-09 14:30N 37°11' E 002°06'612.3
2018-Jun-09 14:00N 37°13' E 002°13'612.3
2018-Jun-09 13:30N 37°14' E 002°21'712.3
2018-Jun-09 12:55N 37°16' E 002°29'512.6
2018-Jun-09 12:30N 37°18' E 002°35'612.8
2018-Jun-09 12:00N 37°20' E 002°43'612.3
2018-Jun-09 11:30N 37°22' E 002°50'612.1
2018-Jun-09 11:00N 37°24' E 002°58'612.0
2018-Jun-09 10:30N 37°25' E 003°05'611.8
2018-Jun-09 10:00N 37°27' E 003°12'712.2
2018-Jun-09 09:25N 37°29' E 003°21'612.8
2018-Jun-09 08:58N 37°31' E 003°28'612.9
2018-Jun-09 08:30N 37°33' E 003°35'712.9
2018-Jun-09 08:00N 37°35' E 003°43'612.8
2018-Jun-09 07:30N 37°37' E 003°50'612.7
2018-Jun-09 07:00N 37°38' E 003°58'712.9
2018-Jun-09 06:30N 37°38' E 004°06'713.0
2018-Jun-09 05:59N 37°38' E 004°15'613.0
2018-Jun-09 05:30N 37°38' E 004°23'713.0
2018-Jun-09 04:58N 37°38' E 004°32'613.0
2018-Jun-09 04:30N 37°38' E 004°39'612.9
2018-Jun-09 04:00N 37°38' E 004°47'612.9
2018-Jun-09 03:30N 37°38' E 004°56'612.9
2018-Jun-09 03:00N 37°38' E 005°04'713.2
2018-Jun-09 02:30N 37°38' E 005°12'713.3
2018-Jun-09 02:00N 37°38' E 005°21'713.5
2018-Jun-09 01:30N 37°38' E 005°29'713.6
2018-Jun-09 00:58N 37°38' E 005°38'613.5
2018-Jun-09 00:30N 37°38' E 005°46'713.3
2018-Jun-08 23:57N 37°38' E 005°56'  
Track history (hours):
 
Tides and Currents Weather Stations Pressure Air Temp Water Temp Dewpoint Dewpoint Depression Visibility Wind Speed Wind Dir Waves Ship Positions

Libre

Last reported at 2018-Jun-15 12:57 UTC. Time now 2018-Jun-24 22:06 UTC.
Position N 34°20' W 025°24'.
Warning: this ship's position is 9 days out of date.

Length 190 m; draft 9.8 m.

Type: Cargo ship. MMSI: 352486000.

Date/timePositionNaut miles runAvg speedWind from/ knotsBaromVisibWave heightAir tempDewpointWater temp
2018-Jun-15 12:57N 34°20' W 025°24'53712.7
2018-Jun-13 18:45N 35°29' W 014°35'312.5
2018-Jun-13 18:29N 35°29' W 014°30'612.9
2018-Jun-13 18:00N 35°29' W 014°23'812.8
2018-Jun-13 17:23N 35°30' W 014°13'612.8
2018-Jun-13 16:55N 35°30' W 014°06'512.8
2018-Jun-13 16:30N 35°31' W 013°59'612.6
2018-Jun-13 16:01N 35°31' W 013°52'812.5
2018-Jun-13 15:24N 35°32' W 013°42'2012.5
2018-Jun-13 13:49N 35°33' W 013°18'912.6
2018-Jun-13 13:07N 35°34' W 013°07'112.6
2018-Jun-13 13:00N 35°34' W 013°06'14712.4
2018-Jun-13 01:09N 35°44' W 010°05'22012.1
2018-Jun-12 06:54N 35°58' W 005°33'4 9.0
2018-Jun-12 06:30N 35°60' W 005°29'4 7.8
2018-Jun-12 06:00N 36°01' W 005°25'5 9.5
2018-Jun-12 05:30N 36°06' W 005°23'2 3.8
2018-Jun-12 05:00N 36°07' W 005°22'0 0.1
2018-Jun-12 04:30N 36°07' W 005°22'0 0.1
2018-Jun-12 03:57N 36°07' W 005°22'0 0.2
2018-Jun-12 03:30N 36°07' W 005°22'0 0.0
2018-Jun-12 03:00N 36°07' W 005°22'0 0.1
2018-Jun-12 02:30N 36°07' W 005°22'0 0.1
2018-Jun-12 01:58N 36°07' W 005°22'0 0.2
2018-Jun-12 01:30N 36°07' W 005°22'0 0.0
2018-Jun-12 01:01N 36°07' W 005°22'0 0.1
2018-Jun-12 00:30N 36°07' W 005°22'0 0.0
2018-Jun-12 00:00N 36°07' W 005°22'0 0.0
2018-Jun-11 23:30N 36°07' W 005°22'0 0.1
2018-Jun-11 23:00N 36°07' W 005°22'0 0.1
2018-Jun-11 22:31N 36°07' W 005°22'0 0.1
2018-Jun-11 22:00N 36°07' W 005°22'0 0.1
2018-Jun-11 21:30N 36°07' W 005°22'0 0.1
2018-Jun-11 21:01N 36°07' W 005°22'0 0.1
2018-Jun-11 20:31N 36°07' W 005°22'0 0.0
2018-Jun-11 20:00N 36°07' W 005°22'0 0.0
2018-Jun-11 19:30N 36°07' W 005°22'0 0.0
2018-Jun-11 19:01N 36°07' W 005°22'0 0.1
2018-Jun-11 18:31N 36°07' W 005°22'0 0.8
2018-Jun-11 17:59N 36°07' W 005°21'1 2.4
2018-Jun-11 17:30N 36°06' W 005°22'2 3.4
2018-Jun-11 17:00N 36°06' W 005°19'1 2.7
2018-Jun-11 16:31N 36°06' W 005°18'0 0.9
2018-Jun-11 16:00N 36°06' W 005°17'1 2.6
2018-Jun-11 15:31N 36°06' W 005°16'3 2.8
2018-Jun-11 14:33N 36°07' W 005°13'0 1.6
2018-Jun-11 14:30N 36°07' W 005°13'3 0.3
2018-Jun-11 06:10N 36°08' W 005°10'0 0.2
2018-Jun-11 05:59N 36°08' W 005°10'0 0.5
2018-Jun-11 05:30N 36°08' W 005°10'0 0.6
2018-Jun-11 05:00N 36°08' W 005°10'0 0.9
2018-Jun-11 04:30N 36°07' W 005°11'0 0.9
2018-Jun-11 04:00N 36°07' W 005°11'0 0.7
2018-Jun-11 03:30N 36°07' W 005°11'0 0.8
2018-Jun-11 03:00N 36°07' W 005°12'0 0.7
2018-Jun-11 02:29N 36°06' W 005°12'1 1.2
2018-Jun-11 02:00N 36°06' W 005°11'2 4.6
2018-Jun-11 01:28N 36°05' W 005°09'2 3.5
2018-Jun-11 01:00N 36°04' W 005°11'610.0
2018-Jun-11 00:27N 36°05' W 005°04'29510.1
2018-Jun-09 19:06N 36°54' E 000°58'212.1
2018-Jun-09 18:56N 36°55' E 001°00'512.1
2018-Jun-09 18:30N 36°56' E 001°07'2412.2
2018-Jun-09 16:32N 37°03' E 001°35'112.6
2018-Jun-09 16:29N 37°03' E 001°36'612.6
2018-Jun-09 16:00N 37°05' E 001°43'1312.5
2018-Jun-09 14:59N 37°09' E 001°58'612.6
2018-Jun-09 14:30N 37°11' E 002°06'612.3
2018-Jun-09 14:00N 37°13' E 002°13'612.3
2018-Jun-09 13:30N 37°14' E 002°21'712.3
2018-Jun-09 12:55N 37°16' E 002°29'512.6
2018-Jun-09 12:30N 37°18' E 002°35'612.8
2018-Jun-09 12:00N 37°20' E 002°43'612.3
2018-Jun-09 11:30N 37°22' E 002°50'612.1
2018-Jun-09 11:00N 37°24' E 002°58'612.0
2018-Jun-09 10:30N 37°25' E 003°05'611.8
2018-Jun-09 10:00N 37°27' E 003°12'712.2
2018-Jun-09 09:25N 37°29' E 003°21'612.8
2018-Jun-09 08:58N 37°31' E 003°28'612.9
2018-Jun-09 08:30N 37°33' E 003°35'712.9
2018-Jun-09 08:00N 37°35' E 003°43'612.8
2018-Jun-09 07:30N 37°37' E 003°50'612.7
2018-Jun-09 07:00N 37°38' E 003°58'712.9
2018-Jun-09 06:30N 37°38' E 004°06'713.0
2018-Jun-09 05:59N 37°38' E 004°15'613.0
2018-Jun-09 05:30N 37°38' E 004°23'713.0
2018-Jun-09 04:58N 37°38' E 004°32'613.0
2018-Jun-09 04:30N 37°38' E 004°39'612.9
2018-Jun-09 04:00N 37°38' E 004°47'612.9
2018-Jun-09 03:30N 37°38' E 004°56'612.9
2018-Jun-09 03:00N 37°38' E 005°04'713.2
2018-Jun-09 02:30N 37°38' E 005°12'713.3
2018-Jun-09 02:00N 37°38' E 005°21'713.5
2018-Jun-09 01:30N 37°38' E 005°29'713.6
2018-Jun-09 00:58N 37°38' E 005°38'613.5
2018-Jun-09 00:30N 37°38' E 005°46'713.3
2018-Jun-08 23:57N 37°38' E 005°56'  

Dump ship's entire track history